Time;durP1;ratioP1;P1;durP2;ratioP2;P2;SDS_P1;SDS_P2;PMS_P1;PMS_P2;Temp;Humidity;BMP_temperature;BMP_pressure;BME280_temperature;BME280_humidity;BME280_pressure;Samples;Min_cycle;Max_cycle;Signal;HPM_P1;HPM_P2
2022/06/03 00:01:43;;;;;;;17.90;6.80;;;;;;;13.25;54.06;99589.92;105879;1274;108408;-68
2022/06/03 00:04:17;;;;;;;15.30;6.20;;;;;;;13.22;54.19;99589.14;106007;1274;97915;-71
2022/06/03 00:07:17;;;;;;;13.10;6.20;;;;;;;13.18;54.18;99589.73;105996;1274;99012;-69
2022/06/03 00:10:17;;;;;;;18.00;6.50;;;;;;;13.14;54.32;99588.66;105945;1274;112089;-69
2022/06/03 00:13:10;;;;;;;13.20;6.10;;;;;;;13.09;54.36;99593.08;105913;1274;95269;-69
2022/06/03 00:16:16;;;;;;;11.80;5.80;;;;;;;13.04;54.43;99598.42;105847;1274;108346;-68
2022/06/03 00:19:11;;;;;;;11.90;5.80;;;;;;;12.99;54.63;99599.89;105924;1274;97905;-67
2022/06/03 00:21:53;;;;;;;12.70;6.50;;;;;;;12.96;54.63;99598.89;105955;1274;96530;-69
2022/06/03 00:24:34;;;;;;;16.20;6.50;;;;;;;12.92;54.52;99602.00;105899;1274;111441;-68
2022/06/03 00:27:41;;;;;;;14.50;6.60;;;;;;;12.88;54.77;99601.73;105901;1274;97873;-70
2022/06/03 00:30:15;;;;;;;13.00;6.40;;;;;;;12.84;54.75;99602.76;105869;1274;108326;-69
2022/06/03 00:33:05;;;;;;;12.50;6.10;;;;;;;12.80;54.90;99598.46;105871;1274;98505;-69
2022/06/03 00:35:51;;;;;;;13.80;6.40;;;;;;;12.76;54.89;99605.48;105887;1274;96576;-69
2022/06/03 00:38:35;;;;;;;15.90;6.60;;;;;;;12.71;54.80;99603.36;105866;1274;111935;-67
2022/06/03 00:41:36;;;;;;;15.10;7.40;;;;;;;12.65;54.98;99603.05;105877;1274;97691;-67
2022/06/03 00:44:30;;;;;;;13.00;6.10;;;;;;;12.60;55.11;99607.20;105921;1274;107722;-68
2022/06/03 00:47:40;;;;;;;16.30;6.90;;;;;;;12.53;54.94;99603.05;105927;1274;97972;-68
2022/06/03 00:50:20;;;;;;;16.30;6.60;;;;;;;12.46;55.14;99601.43;105888;1274;96431;-68
2022/06/03 00:53:26;;;;;;;15.50;7.30;;;;;;;12.42;55.28;99603.69;105903;1274;111986;-68
2022/06/03 00:56:19;;;;;;;16.10;6.70;;;;;;;12.37;55.34;99603.87;105967;1274;97741;-67
2022/06/03 00:59:02;;;;;;;15.20;7.40;;;;;;;12.29;55.31;99607.56;105964;1274;108160;-68
2022/06/03 01:01:45;;;;;;;16.50;7.50;;;;;;;12.25;55.50;99607.73;105896;1274;100381;-68
2022/06/03 01:04:55;;;;;;;14.00;7.10;;;;;;;12.20;55.49;99607.68;105983;1274;97857;-69
2022/06/03 01:07:51;;;;;;;15.20;6.70;;;;;;;12.14;55.49;99605.66;105867;1274;112436;-69
2022/06/03 01:10:34;;;;;;;16.30;7.40;;;;;;;12.07;55.67;99610.71;105907;1274;97891;-68
2022/06/03 01:13:15;;;;;;;16.80;8.20;;;;;;;12.04;55.87;99615.05;105943;1274;108313;-68
2022/06/03 01:15:52;;;;;;;16.20;7.50;;;;;;;12.01;55.87;99617.58;105900;1274;97989;-67
2022/06/03 01:18:47;;;;;;;13.10;7.10;;;;;;;11.97;55.83;99614.45;105972;1274;98017;-67
2022/06/03 01:21:30;;;;;;;14.00;6.70;;;;;;;11.93;55.98;99609.90;105912;1274;111920;-68
2022/06/03 01:24:08;;;;;;;13.30;6.70;;;;;;;11.89;55.89;99607.50;105883;1274;97784;-67
2022/06/03 01:27:13;;;;;;;14.60;6.50;;;;;;;11.86;56.13;99613.25;105888;1274;108341;-68
2022/06/03 01:30:13;;;;;;;14.90;7.40;;;;;;;11.80;56.10;99613.13;105975;1274;97905;-67
2022/06/03 01:32:59;;;;;;;14.10;7.20;;;;;;;11.75;56.21;99614.13;105876;1274;97970;-69
2022/06/03 01:36:18;;;;;;;14.80;7.10;;;;;;;11.71;56.27;99615.66;105869;1274;111911;-68
2022/06/03 01:38:58;;;;;;;16.70;7.90;;;;;;;11.67;56.36;99617.04;105226;1284;97880;-70
2022/06/03 01:41:50;;;;;;;16.70;7.90;;;;;;;11.63;56.46;99612.65;105288;1284;107199;-71
2022/06/03 01:44:40;;;;;;;15.00;7.00;;;;;;;11.60;56.39;99617.14;105870;1274;97959;-68
2022/06/03 01:47:25;;;;;;;16.00;7.50;;;;;;;11.58;56.61;99616.05;105932;1274;97898;-69
2022/06/03 01:50:12;;;;;;;16.60;7.10;;;;;;;11.54;56.59;99613.78;105958;1274;111074;-69
2022/06/03 01:53:01;;;;;;;13.80;7.00;;;;;;;11.51;56.63;99613.65;105883;1274;97765;-69
2022/06/03 01:55:58;;;;;;;14.90;7.40;;;;;;;11.47;56.67;99616.23;105869;1274;108224;-69
2022/06/03 01:58:46;;;;;;;13.80;6.90;;;;;;;11.43;56.73;99618.45;105853;1273;96447;-68
2022/06/03 02:01:23;;;;;;;16.10;7.60;;;;;;;11.40;56.77;99618.49;105865;1274;96338;-69
2022/06/03 02:04:07;;;;;;;19.90;7.80;;;;;;;11.37;56.88;99622.92;105839;1274;112230;-69
2022/06/03 02:07:10;;;;;;;18.80;8.10;;;;;;;11.34;56.95;99621.55;105912;1274;97921;-69
2022/06/03 02:09:47;;;;;;;15.80;8.00;;;;;;;11.30;57.15;99621.11;105862;1274;108363;-69
2022/06/03 02:12:53;;;;;;;19.80;8.70;;;;;;;11.28;57.11;99622.29;105895;1274;97912;-70
2022/06/03 02:15:55;;;;;;;19.30;7.90;;;;;;;11.23;57.22;99627.77;105862;1274;97919;-67
2022/06/03 02:19:00;;;;;;;17.90;9.10;;;;;;;11.22;57.31;99628.75;105859;1274;111681;-68
2022/06/03 02:22:10;;;;;;;17.60;7.90;;;;;;;11.18;57.30;99629.50;105863;1274;97976;-69
2022/06/03 02:25:10;;;;;;;18.40;8.90;;;;;;;11.15;57.38;99631.81;105723;1274;108621;-68
2022/06/03 02:27:37;;;;;;;19.00;8.40;;;;;;;11.11;57.53;99630.49;105836;1274;97992;-69
2022/06/03 02:30:40;;;;;;;15.70;7.70;;;;;;;11.09;57.39;99631.14;105888;1274;95364;-67
2022/06/03 02:33:23;;;;;;;18.20;7.80;;;;;;;11.07;57.61;99637.16;105876;1274;111972;-69
2022/06/03 02:36:11;;;;;;;17.90;8.10;;;;;;;11.03;57.66;99637.62;105890;1274;96537;-67
2022/06/03 02:38:49;;;;;;;15.80;7.60;;;;;;;10.99;57.78;99641.02;105832;1274;109137;-67
2022/06/03 02:41:55;;;;;;;19.90;8.90;;;;;;;10.97;57.80;99643.81;105868;1274;96538;-67
2022/06/03 02:44:30;;;;;;;18.80;8.10;;;;;;;10.95;57.85;99643.11;105869;1274;97857;-67
2022/06/03 02:47:24;;;;;;;19.00;8.70;;;;;;;10.92;57.89;99647.17;105872;1274;112074;-68
2022/06/03 02:50:26;;;;;;;16.60;8.20;;;;;;;10.91;57.98;99654.73;105913;1274;98580;-70
2022/06/03 02:53:19;;;;;;;18.20;8.60;;;;;;;10.87;58.01;99650.50;105908;1274;108307;-69
2022/06/03 02:56:00;;;;;;;15.60;7.80;;;;;;;10.84;58.10;99651.05;105797;1274;96410;-68
2022/06/03 02:59:02;;;;;;;15.60;7.80;;;;;;;10.82;58.16;99652.06;105852;1274;96724;-67
2022/06/03 03:02:01;;;;;;;16.20;8.40;;;;;;;10.79;58.22;99657.95;105575;1274;112052;-66
2022/06/03 03:04:53;;;;;;;16.30;8.30;;;;;;;10.77;58.31;99658.42;105996;1274;97868;-68
2022/06/03 03:07:45;;;;;;;20.10;9.60;;;;;;;10.76;58.34;99663.63;105947;1274;108288;-69
2022/06/03 03:10:45;;;;;;;19.10;9.90;;;;;;;10.74;58.38;99667.81;105925;1274;97956;-69
2022/06/03 03:14:06;;;;;;;18.90;9.00;;;;;;;10.74;58.47;99669.27;106024;1274;98583;-69
2022/06/03 03:17:10;;;;;;;17.40;9.00;;;;;;;10.74;58.57;99672.46;105937;1274;112040;-69
2022/06/03 03:20:16;;;;;;;21.50;9.90;;;;;;;10.74;58.65;99678.65;105704;1274;96506;-69
2022/06/03 03:23:40;;;;;;;21.00;10.30;;;;;;;10.74;58.73;99678.11;105861;1274;108383;-76
2022/06/03 03:26:38;;;;;;;19.60;10.30;;;;;;;10.75;58.87;99685.02;105948;1274;97867;-73
2022/06/03 03:29:14;;;;;;;19.60;9.50;;;;;;;10.72;58.92;99690.46;105976;1274;97972;-70
2022/06/03 03:32:11;;;;;;;18.70;9.50;;;;;;;10.71;59.05;99687.71;105973;1274;110907;-68
2022/06/03 03:34:44;;;;;;;24.80;11.80;;;;;;;10.74;59.01;99691.64;105977;1274;97889;-69
2022/06/03 03:37:40;;;;;;;20.40;10.60;;;;;;;10.76;59.12;99690.64;105955;1274;108409;-69
2022/06/03 03:40:26;;;;;;;;;;;;;;;10.77;59.20;99687.55;106015;1274;97944;-69
2022/06/03 03:43:19;;;;;;;19.40;10.10;;;;;;;10.70;59.65;99684.23;105964;1274;97981;-69
2022/06/03 03:46:06;;;;;;;21.90;10.30;;;;;;;10.66;59.63;99685.34;105950;1274;112270;-68
2022/06/03 03:48:53;;;;;;;21.30;10.70;;;;;;;10.70;59.63;99692.39;105392;1274;762138;-68
2022/06/03 03:51:54;;;;;;;21.80;11.60;;;;;;;10.77;59.88;99690.21;105963;1276;108335;-67
2022/06/03 03:54:41;;;;;;;19.80;10.40;;;;;;;10.84;59.95;99698.06;105936;1277;95292;-67
2022/06/03 03:57:36;;;;;;;19.30;10.70;;;;;;;10.91;60.08;99698.36;105995;1274;95197;-68
2022/06/03 04:00:32;;;;;;;21.00;11.20;;;;;;;10.97;60.00;99699.93;106019;1274;112037;-68
2022/06/03 04:03:19;;;;;;;22.80;11.30;;;;;;;11.03;60.17;99701.45;106040;1277;97966;-66
2022/06/03 04:06:20;;;;;;;20.90;11.10;;;;;;;11.08;60.05;99703.45;105910;1274;108649;-69
2022/06/03 04:09:24;;;;;;;22.40;10.60;;;;;;;11.14;60.32;99705.54;107864;1274;96002;-68
2022/06/03 04:12:06;;;;;;;20.30;10.60;;;;;;;11.21;60.38;99707.77;107926;1274;95909;-68
2022/06/03 04:14:55;;;;;;;20.40;10.90;;;;;;;11.27;60.49;99700.60;107924;1274;111282;-68
2022/06/03 04:18:00;;;;;;;20.30;10.00;;;;;;;11.35;60.46;99703.84;107917;1274;96995;-67
2022/06/03 04:21:08;;;;;;;18.90;9.40;;;;;;;11.43;60.58;99704.56;106810;1274;107733;-68
2022/06/03 04:24:26;;;;;;;20.90;9.90;;;;;;;11.52;60.74;99698.50;106062;1274;98008;-70
2022/06/03 04:27:08;;;;;;;19.60;10.00;;;;;;;11.59;60.76;99700.84;106124;1275;97988;-69
2022/06/03 04:30:02;;;;;;;18.60;9.90;;;;;;;11.67;60.83;99707.80;106145;1274;111261;-69
2022/06/03 04:32:52;;;;;;;20.30;10.40;;;;;;;11.74;60.90;99706.42;106118;1275;97877;-70
2022/06/03 04:35:45;;;;;;;19.20;9.80;;;;;;;11.81;61.11;99706.50;105933;1274;106839;-69
2022/06/03 04:38:31;;;;;;;20.50;10.70;;;;;;;11.88;61.11;99705.30;106103;1274;97962;-69
2022/06/03 04:41:32;;;;;;;21.50;10.70;;;;;;;11.95;61.08;99702.23;106037;1272;97867;-69
2022/06/03 04:44:06;;;;;;;23.70;11.70;;;;;;;12.01;61.27;99708.92;106064;1274;112136;-67
2022/06/03 04:47:07;;;;;;;18.10;10.60;;;;;;;12.07;61.22;99708.83;105984;1274;97850;-69
2022/06/03 04:49:59;;;;;;;20.50;11.30;;;;;;;12.13;61.43;99706.50;105949;1276;108517;-69
2022/06/03 04:53:10;;;;;;;21.60;11.60;;;;;;;12.20;61.59;99704.94;105952;1274;97989;-68
2022/06/03 04:56:13;;;;;;;22.20;12.00;;;;;;;12.26;61.51;99703.10;106042;1274;97956;-70
2022/06/03 04:58:59;;;;;;;22.20;11.60;;;;;;;12.33;61.73;99708.18;106071;1274;110446;-67
2022/06/03 05:01:49;;;;;;;20.80;11.90;;;;;;;12.39;61.70;99708.30;106029;1274;97912;-69
2022/06/03 05:04:56;;;;;;;23.30;11.80;;;;;;;12.45;61.80;99709.45;105996;1274;108362;-69
2022/06/03 05:07:53;;;;;;;19.20;11.90;;;;;;;12.51;61.99;99709.55;106016;1274;97992;-68
2022/06/03 05:10:47;;;;;;;21.90;12.30;;;;;;;12.58;61.94;99715.13;105990;1274;97859;-69
2022/06/03 05:13:35;;;;;;;23.60;11.40;;;;;;;12.65;62.03;99716.96;105994;1274;111000;-69
2022/06/03 05:16:12;;;;;;;20.00;11.80;;;;;;;12.71;62.13;99718.30;106002;1274;95255;-70
2022/06/03 05:18:52;;;;;;;22.40;12.30;;;;;;;12.79;62.24;99721.66;105943;1274;108371;-68
2022/06/03 05:21:47;;;;;;;27.10;13.10;;;;;;;12.85;62.15;99724.27;105956;1273;97874;-68
2022/06/03 05:24:19;;;;;;;21.20;12.00;;;;;;;12.91;62.27;99723.27;106037;1274;97980;-68
2022/06/03 05:27:16;;;;;;;22.00;11.50;;;;;;;12.97;62.36;99724.81;105965;1274;110932;-67
2022/06/03 05:30:12;;;;;;;23.90;12.30;;;;;;;13.04;62.34;99726.48;105905;1274;97721;-69
2022/06/03 05:33:30;;;;;;;20.60;12.00;;;;;;;13.10;62.59;99727.27;105873;1274;107928;-69
2022/06/03 05:36:16;;;;;;;21.60;11.50;;;;;;;13.18;62.42;99728.84;105999;1274;97976;-67
2022/06/03 05:39:04;;;;;;;19.40;11.80;;;;;;;13.27;62.50;99731.41;106077;1274;97866;-69
2022/06/03 05:45:02;;;;;;;21.40;12.30;;;;;;;13.55;62.74;99726.71;106108;1274;97836;-68
2022/06/03 05:48:02;;;;;;;19.60;10.50;;;;;;;13.71;62.85;99727.64;106008;1274;108257;-70
2022/06/03 05:51:00;;;;;;;21.60;11.20;;;;;;;13.89;62.90;99733.45;105966;1276;97941;-69
2022/06/03 05:53:39;;;;;;;19.70;10.90;;;;;;;14.08;62.99;99733.91;106001;1274;95286;-70
2022/06/03 05:56:32;;;;;;;18.50;10.20;;;;;;;14.24;63.12;99735.22;106046;1274;111420;-70
2022/06/03 05:59:18;;;;;;;17.00;9.70;;;;;;;14.44;63.30;99741.55;106188;1273;97879;-68
2022/06/03 06:02:03;;;;;;;14.80;8.20;;;;;;;14.62;63.04;99746.19;105896;1274;107088;-68
2022/06/03 06:04:57;;;;;;;16.30;8.60;;;;;;;14.76;62.93;99746.94;106055;1274;97755;-70
2022/06/03 06:08:06;;;;;;;19.10;9.30;;;;;;;14.90;62.94;99747.94;105937;1276;97887;-69
2022/06/03 06:11:19;;;;;;;18.70;8.60;;;;;;;15.06;63.05;99747.44;105769;1276;111422;-69
2022/06/03 06:14:12;;;;;;;17.90;9.10;;;;;;;15.22;63.07;99749.05;105973;1275;98620;-68
2022/06/03 06:16:43;;;;;;;16.10;8.10;;;;;;;15.37;62.98;99745.27;105967;1274;108450;-68
2022/06/03 06:19:18;;;;;;;16.40;8.70;;;;;;;15.53;63.00;99750.60;105942;1275;97989;-69
2022/06/03 06:22:20;;;;;;;16.40;8.40;;;;;;;15.70;62.85;99745.06;105973;1277;97866;-67
2022/06/03 06:24:51;;;;;;;16.30;8.60;;;;;;;15.90;62.67;99747.38;105978;1274;112074;-68
2022/06/03 06:27:40;;;;;;;19.20;9.80;;;;;;;16.05;62.66;99747.95;106067;1274;97719;-68
2022/06/03 06:30:13;;;;;;;19.10;9.70;;;;;;;16.20;62.65;99747.87;105986;1274;106996;-68
2022/06/03 06:33:05;;;;;;;16.70;8.30;;;;;;;16.35;62.71;99745.95;105977;1274;97980;-68
2022/06/03 06:35:53;;;;;;;15.90;7.80;;;;;;;16.52;62.67;99744.31;106020;1274;97732;-69
2022/06/03 06:38:44;;;;;;;18.70;8.10;;;;;;;16.71;62.51;99734.73;106067;1274;112365;-68
2022/06/03 06:41:37;;;;;;;15.50;7.80;;;;;;;16.95;62.28;99737.38;106024;1274;98082;-69
2022/06/03 06:44:23;;;;;;;17.80;7.30;;;;;;;17.17;62.45;99737.73;105938;1274;108440;-67
2022/06/03 06:47:06;;;;;;;14.90;6.80;;;;;;;17.37;62.41;99738.45;105981;1274;97985;-68
2022/06/03 06:49:54;;;;;;;13.20;6.00;;;;;;;17.59;62.22;99738.98;105955;1274;97879;-68
2022/06/03 06:52:30;;;;;;;12.80;5.70;;;;;;;17.85;62.17;99740.00;105992;1274;111667;-69
2022/06/03 06:55:24;;;;;;;10.60;5.30;;;;;;;18.19;62.11;99736.17;105877;1274;97975;-69
2022/06/03 06:57:59;;;;;;;10.40;4.50;;;;;;;18.64;62.19;99732.36;105849;1274;108253;-69
2022/06/03 07:00:38;;;;;;;8.30;4.80;;;;;;;19.05;61.95;99726.80;105955;1276;98050;-69
2022/06/03 07:03:25;;;;;;;8.90;4.40;;;;;;;19.42;61.42;99730.15;106056;1274;95267;-69
2022/06/03 07:06:08;;;;;;;9.10;4.10;;;;;;;19.84;61.61;99726.70;106049;1274;111966;-69
2022/06/03 07:08:44;;;;;;;11.90;4.10;;;;;;;20.32;61.16;99724.27;105938;1274;97929;-69
2022/06/03 07:11:22;;;;;;;8.20;3.70;;;;;;;20.74;60.44;99723.38;105932;1274;107831;-69
2022/06/03 07:13:59;;;;;;;5.60;2.70;;;;;;;21.11;60.88;99725.96;105938;1274;97977;-69
2022/06/03 07:19:49;;;;;;;4.20;2.30;;;;;;;22.34;60.56;99722.22;105863;1276;113156;-69
2022/06/03 07:22:50;;;;;;;6.20;2.30;;;;;;;23.08;59.90;99721.86;105991;1274;97949;-69
2022/06/03 07:25:31;;;;;;;3.60;2.60;;;;;;;23.81;59.54;99716.39;105942;1274;108516;-70
2022/06/03 07:28:32;;;;;;;3.20;2.70;;;;;;;24.84;59.12;99710.19;105846;1274;95340;-70
2022/06/03 07:31:25;;;;;;;6.70;2.60;;;;;;;26.28;58.34;99708.45;105560;1274;96595;-69
2022/06/03 07:34:05;;;;;;;5.60;2.10;;;;;;;27.67;57.37;99706.19;105903;1274;111360;-69
2022/06/03 07:36:46;;;;;;;3.20;1.80;;;;;;;28.62;55.58;99709.95;106028;1277;97071;-69
2022/06/03 07:39:57;;;;;;;3.70;2.30;;;;;;;29.15;54.44;99703.70;105938;1276;108404;-69
2022/06/03 07:42:56;;;;;;;3.60;2.10;;;;;;;30.17;54.68;99707.10;105923;1277;96087;-69
2022/06/03 07:45:49;;;;;;;4.40;2.40;;;;;;;31.47;54.68;99712.84;105904;1274;97775;-69
2022/06/03 07:48:23;;;;;;;5.90;2.60;;;;;;;32.73;54.09;99713.93;105880;1274;111308;-69
2022/06/03 07:50:56;;;;;;;4.80;2.40;;;;;;;33.68;53.48;99712.66;105902;1274;96309;-69
2022/06/03 07:53:32;;;;;;;8.10;2.40;;;;;;;34.56;53.07;99708.80;105908;1274;108318;-69
2022/06/03 07:56:04;;;;;;;7.30;2.20;;;;;;;35.27;52.37;99710.92;105935;1274;97983;-69
2022/06/03 07:58:37;;;;;;;3.40;2.20;;;;;;;35.80;51.82;99709.69;105989;1274;97884;-69
2022/06/03 08:01:20;;;;;;;3.60;2.20;;;;;;;36.44;51.08;99706.61;106040;1276;111279;-69
2022/06/03 08:03:52;;;;;;;6.90;2.10;;;;;;;37.11;50.60;99710.20;106018;1274;98438;-69
2022/06/03 08:12:27;;;;;;;5.40;1.80;;;;;;;38.23;48.02;99703.70;105918;1274;96506;-69
2022/06/03 08:14:55;;;;;;;3.90;2.10;;;;;;;38.33;47.54;99707.73;105994;1274;111459;-70
2022/06/03 08:17:26;;;;;;;2.50;1.80;;;;;;;38.57;46.88;99705.36;105962;1274;96464;-70
2022/06/03 08:19:58;;;;;;;2.50;1.80;;;;;;;38.90;46.00;99703.73;105984;1274;107753;-70
2022/06/03 08:22:26;;;;;;;3.70;1.70;;;;;;;39.20;45.32;99703.30;105959;1274;97973;-69
2022/06/03 08:25:00;;;;;;;6.90;1.40;;;;;;;39.47;44.92;99696.42;105949;1274;97875;-70
2022/06/03 08:27:35;;;;;;;1.80;1.60;;;;;;;39.72;44.24;99697.73;106036;1274;111150;-69
2022/06/03 08:30:20;;;;;;;4.50;1.80;;;;;;;39.79;42.61;99698.20;106083;1274;98383;-68
2022/06/03 08:32:59;;;;;;;4.10;1.90;;;;;;;38.97;40.95;99697.25;105900;1274;108958;-70
2022/06/03 08:35:33;;;;;;;6.80;2.00;;;;;;;38.81;41.38;99697.31;105798;1274;96112;-70
2022/06/03 08:38:08;;;;;;;3.60;1.90;;;;;;;39.06;40.97;99697.77;105928;1276;97960;-70
2022/06/03 08:41:11;;;;;;;3.60;1.50;;;;;;;39.15;40.25;99693.04;106082;1274;111360;-70
2022/06/03 08:43:46;;;;;;;2.80;1.40;;;;;;;39.43;39.63;99689.55;106060;1274;97024;-70
2022/06/03 08:46:27;;;;;;;2.90;1.60;;;;;;;39.56;39.14;99685.39;106047;1274;108880;-69
2022/06/03 08:49:06;;;;;;;;;;;;;;;39.74;38.87;99690.09;106070;1274;96323;-69
2022/06/03 08:51:47;;;;;;;3.50;1.70;;;;;;;39.90;38.23;99686.25;105941;1274;97949;-69
2022/06/03 08:54:38;;;;;;;7.90;3.50;;;;;;;40.15;37.69;99684.60;105960;1274;111735;-69
2022/06/03 08:57:32;;;;;;;2.70;2.00;;;;;;;40.37;36.91;99679.61;105961;1274;98388;-69
2022/06/03 09:00:13;;;;;;;5.60;2.00;;;;;;;40.43;36.42;99682.52;105916;1274;108384;-68
2022/06/03 09:03:29;;;;;;;5.30;1.80;;;;;;;40.26;35.93;99683.16;105960;1274;95331;-69
2022/06/03 09:06:06;;;;;;;6.50;2.00;;;;;;;40.10;35.53;99684.83;105797;1276;97834;-69
2022/06/03 09:08:55;;;;;;;5.20;1.60;;;;;;;40.10;34.99;99678.52;106018;1276;111041;-70
2022/06/03 09:11:33;;;;;;;5.10;1.80;;;;;;;40.07;34.42;99681.46;106022;1276;98380;-69
2022/06/03 09:14:06;;;;;;;5.10;2.00;;;;;;;40.20;34.03;99684.57;106087;1274;108313;-68
2022/06/03 09:16:40;;;;;;;4.50;2.00;;;;;;;40.32;33.72;99677.82;105996;1277;95369;-68
2022/06/03 09:19:15;;;;;;;3.20;1.70;;;;;;;40.41;33.35;99678.39;106017;1277;97883;-69
2022/06/03 09:21:51;;;;;;;3.60;1.80;;;;;;;40.45;32.92;99681.45;105993;1275;111363;-68
2022/06/03 09:24:24;;;;;;;3.30;1.90;;;;;;;40.55;32.52;99682.79;106012;1274;97979;-69
2022/06/03 09:26:57;;;;;;;3.50;1.90;;;;;;;40.54;32.12;99685.41;105909;1274;108018;-68
2022/06/03 09:29:26;;;;;;;3.10;1.70;;;;;;;40.43;31.42;99683.66;106003;1274;97888;-69
2022/06/03 09:32:01;;;;;;;3.60;1.60;;;;;;;40.27;31.34;99682.77;106093;1274;97933;-69
2022/06/03 09:34:47;;;;;;;4.00;2.10;;;;;;;40.32;31.08;99680.61;105941;1274;111844;-68
2022/06/03 09:37:27;;;;;;;4.70;1.90;;;;;;;40.06;30.32;99679.55;105941;1276;95677;-69
2022/06/03 09:39:59;;;;;;;2.70;1.80;;;;;;;39.58;29.88;99678.65;106096;1274;108140;-68
2022/06/03 09:42:31;;;;;;;3.60;2.40;;;;;;;39.27;29.88;99676.29;105927;1274;97737;-70
2022/06/03 09:45:05;;;;;;;2.50;1.90;;;;;;;39.09;29.53;99677.11;105899;1274;97871;-70
2022/06/03 09:47:36;;;;;;;7.40;2.30;;;;;;;38.89;29.25;99673.45;105940;1274;111309;-68
2022/06/03 09:50:05;;;;;;;5.30;2.70;;;;;;;38.75;29.07;99670.44;105944;1274;97868;-70
2022/06/03 09:52:35;;;;;;;4.80;2.60;;;;;;;38.43;29.07;99673.51;105974;1274;108884;-69
2022/06/03 09:55:26;;;;;;;6.40;2.60;;;;;;;38.24;28.56;99672.09;105858;1274;97934;-68
2022/06/03 09:57:58;;;;;;;3.40;1.90;;;;;;;38.05;28.30;99675.36;105811;1275;98062;-68
2022/06/03 10:00:42;;;;;;;5.50;2.30;;;;;;;37.69;27.99;99675.47;105967;1274;112002;-68
2022/06/03 10:03:11;;;;;;;;;;;;;;;37.20;27.94;99674.80;105989;1274;96751;-68
2022/06/03 10:05:43;;;;;;;4.20;2.00;;;;;;;36.70;27.96;99682.98;105938;1274;108335;-68
2022/06/03 10:08:12;;;;;;;2.60;1.90;;;;;;;36.16;27.76;99679.45;105850;1274;97879;-69
2022/06/03 10:13:31;;;;;;;5.70;2.30;;;;;;;34.90;27.07;99676.60;105989;1274;112068;-69
2022/06/03 10:16:00;;;;;;;4.00;2.10;;;;;;;34.13;26.86;99672.95;106030;1276;98359;-68
2022/06/03 10:18:39;;;;;;;;;;;;;;;33.42;26.85;99668.52;105982;1277;107137;-68
2022/06/03 10:21:08;;;;;;;5.60;2.20;;;;;;;32.75;26.73;99669.74;105990;1276;96460;-67
2022/06/03 10:23:51;;;;;;;3.70;1.80;;;;;;;32.20;26.62;99668.48;105991;1274;96419;-67
2022/06/03 10:26:39;;;;;;;6.80;2.10;;;;;;;31.54;26.82;99666.91;105908;1277;112015;-68
2022/06/03 10:29:13;;;;;;;7.80;2.10;;;;;;;30.90;26.31;99665.30;105994;1274;97785;-67
2022/06/03 10:31:55;;;;;;;3.60;2.00;;;;;;;30.39;26.28;99660.89;105886;1274;107279;-69
2022/06/03 10:34:39;;;;;;;4.10;2.30;;;;;;;29.93;26.40;99660.77;105861;1274;97969;-69
2022/06/03 10:37:15;;;;;;;6.80;2.20;;;;;;;29.62;26.29;99654.86;105908;1274;98632;-69
2022/06/03 10:39:43;;;;;;;2.40;2.20;;;;;;;29.39;25.90;99655.56;105971;1275;113462;-68
2022/06/03 10:42:15;;;;;;;3.70;2.30;;;;;;;29.07;25.93;99651.27;105854;1277;96362;-68
2022/06/03 10:44:47;;;;;;;4.60;2.20;;;;;;;28.84;26.30;99651.87;105768;1274;108347;-67
2022/06/03 10:47:31;;;;;;;4.60;2.20;;;;;;;28.74;26.36;99643.51;106002;1274;97969;-68
2022/06/03 10:50:05;;;;;;;5.30;1.90;;;;;;;28.62;26.47;99643.11;106101;1274;97881;-68
2022/06/03 11:01:34;;;;;;;4.30;1.70;;;;;;;28.29;26.64;99636.52;105993;1274;96374;-65
2022/06/03 11:04:02;;;;;;;4.90;2.10;;;;;;;28.22;26.63;99636.46;106026;1274;97891;-67
2022/06/03 11:06:39;;;;;;;3.50;2.20;;;;;;;28.13;26.31;99638.23;105985;1275;111340;-67
2022/06/03 11:09:09;;;;;;;3.50;1.90;;;;;;;27.93;26.44;99637.32;105963;1274;97944;-67
2022/06/03 11:11:47;;;;;;;3.40;1.90;;;;;;;27.81;26.60;99628.55;106002;1274;107825;-69
2022/06/03 11:14:39;;;;;;;3.30;1.70;;;;;;;27.72;26.84;99626.23;105931;1274;97889;-68
2022/06/03 11:17:07;;;;;;;3.80;1.80;;;;;;;27.60;26.77;99626.58;106096;1274;97843;-68
2022/06/03 11:19:46;;;;;;;6.20;1.90;;;;;;;27.54;27.05;99626.73;106023;1274;112003;-67
2022/06/03 11:22:36;;;;;;;4.90;2.10;;;;;;;27.50;26.99;99622.37;106031;1274;98100;-67
2022/06/03 11:25:22;;;;;;;3.60;2.10;;;;;;;27.42;26.48;99617.59;106021;1277;107581;-70
2022/06/03 11:27:57;;;;;;;5.70;2.50;;;;;;;27.32;26.95;99611.65;105961;1274;96506;-68
2022/06/03 11:30:39;;;;;;;4.00;2.10;;;;;;;27.27;26.78;99612.20;106095;1272;97998;-68
2022/06/03 11:33:22;;;;;;;4.80;2.10;;;;;;;27.16;26.75;99608.34;105913;1274;111978;-68
2022/06/03 11:35:59;;;;;;;5.40;2.30;;;;;;;27.08;27.22;99609.48;105981;1274;96983;-67
2022/06/03 11:38:41;;;;;;;3.70;2.20;;;;;;;27.03;27.23;99603.41;107858;1274;107740;-67
2022/06/03 11:41:24;;;;;;;2.80;2.10;;;;;;;27.01;27.27;99597.95;106427;1274;98076;-67
2022/06/03 11:44:00;;;;;;;5.30;2.10;;;;;;;27.01;27.04;99598.37;107898;1274;95978;-67
2022/06/03 11:46:34;;;;;;;5.20;1.90;;;;;;;26.93;26.84;99591.00;106332;1274;111439;-67
2022/06/03 11:49:07;;;;;;;4.50;1.90;;;;;;;26.88;27.19;99589.36;105869;1274;96630;-68
2022/06/03 11:51:36;;;;;;;5.90;2.20;;;;;;;26.88;27.10;99587.80;105853;1274;107771;-68
2022/06/03 11:54:12;;;;;;;6.60;2.00;;;;;;;26.82;27.16;99581.27;106041;1274;97979;-68
2022/06/03 11:56:41;;;;;;;6.10;2.10;;;;;;;26.78;27.23;99578.09;105972;1274;97876;-67
2022/06/03 11:59:25;;;;;;;7.00;3.00;;;;;;;26.77;27.31;99578.24;106187;1274;111558;-67
2022/06/03 12:02:18;;;;;;;7.60;2.70;;;;;;;26.67;27.04;99572.09;105947;1274;95547;-67
2022/06/03 12:05:09;;;;;;;5.00;2.20;;;;;;;26.51;27.22;99568.69;106068;1274;106779;-68
2022/06/03 12:07:53;;;;;;;6.90;2.20;;;;;;;26.45;27.24;99567.90;106076;1274;97867;-67
2022/06/03 12:10:34;;;;;;;3.80;2.20;;;;;;;26.41;27.22;99561.85;106011;1274;95169;-67
2022/06/03 12:13:15;;;;;;;2.20;2.00;;;;;;;26.37;27.10;99563.63;105947;1273;111322;-67
2022/06/03 12:15:53;;;;;;;5.10;2.00;;;;;;;26.33;27.33;99553.80;105966;1274;96276;-67
2022/06/03 12:18:42;;;;;;;4.20;2.00;;;;;;;26.25;27.10;99550.99;105933;1274;108311;-67
2022/06/03 12:21:34;;;;;;;5.50;2.10;;;;;;;26.22;27.44;99547.05;105970;1274;97943;-69
2022/06/03 12:24:26;;;;;;;3.20;1.80;;;;;;;26.16;27.32;99545.83;106048;1274;98119;-67
2022/06/03 12:26:55;;;;;;;4.80;1.80;;;;;;;26.08;27.41;99545.05;105968;1274;110683;-68
2022/06/03 12:29:37;;;;;;;4.10;2.00;;;;;;;26.06;27.44;99545.59;105910;1274;95265;-68
2022/06/03 12:32:15;;;;;;;1.60;1.50;;;;;;;26.01;27.28;99541.95;105963;1274;108442;-67
2022/06/03 12:34:43;;;;;;;4.60;2.00;;;;;;;25.96;27.15;99540.20;106040;1274;97919;-68
2022/06/03 12:37:28;;;;;;;2.30;2.10;;;;;;;25.93;27.56;99536.41;106108;1274;97831;-67
2022/06/03 12:40:34;;;;;;;5.80;2.50;;;;;;;25.93;27.64;99533.19;106122;1274;112095;-67
2022/06/03 12:43:29;;;;;;;7.30;1.80;;;;;;;25.85;27.42;99526.20;106055;1274;97879;-66
2022/06/03 12:46:02;;;;;;;1.70;1.60;;;;;;;25.80;27.33;99531.27;106105;1274;107715;-67
2022/06/03 12:48:53;;;;;;;5.50;2.20;;;;;;;25.75;27.42;99530.98;105954;1277;97937;-67
2022/06/03 12:51:30;;;;;;;2.40;1.70;;;;;;;25.71;27.35;99530.58;105975;1274;97870;-68
2022/06/03 12:54:19;;;;;;;3.10;1.80;;;;;;;25.65;27.35;99529.05;106002;1274;111312;-67
2022/06/03 12:57:01;;;;;;;3.50;2.00;;;;;;;25.60;27.34;99524.02;105968;1274;98203;-67
2022/06/03 13:00:01;;;;;;;4.50;1.80;;;;;;;25.60;27.42;99520.02;106010;1274;107671;-68
2022/06/03 13:02:37;;;;;;;5.70;2.20;;;;;;;25.55;27.62;99517.15;105820;1276;97824;-66
2022/06/03 13:05:10;;;;;;;5.90;1.80;;;;;;;25.55;27.71;99515.35;106007;1274;97368;-67
2022/06/03 13:07:55;;;;;;;;;;;;;;;25.58;27.63;99509.04;105921;1276;112057;-68